sensor_id;sensor_type;location;lat;lon;timestamp;P1;durP1;ratioP1;P2;durP2;ratioP2
11078;SDS011;5592;49.234;7.268;2024-01-07T00:01:23;3.40;;;2.90;;
11078;SDS011;5592;49.234;7.268;2024-01-07T00:03:48;4.83;;;2.60;;
11078;SDS011;5592;49.234;7.268;2024-01-07T00:06:14;3.60;;;2.80;;
11078;SDS011;5592;49.234;7.268;2024-01-07T00:08:39;4.43;;;2.70;;
11078;SDS011;5592;49.234;7.268;2024-01-07T00:11:05;3.80;;;2.97;;
11078;SDS011;5592;49.234;7.268;2024-01-07T00:13:30;4.60;;;2.80;;
11078;SDS011;5592;49.234;7.268;2024-01-07T00:15:56;5.30;;;2.80;;
11078;SDS011;5592;49.234;7.268;2024-01-07T00:18:21;3.73;;;2.70;;
11078;SDS011;5592;49.234;7.268;2024-01-07T00:20:49;2.53;;;2.33;;
11078;SDS011;5592;49.234;7.268;2024-01-07T00:23:14;3.23;;;2.70;;
11078;SDS011;5592;49.234;7.268;2024-01-07T00:25:40;3.20;;;2.60;;
11078;SDS011;5592;49.234;7.268;2024-01-07T00:28:06;3.47;;;3.00;;
11078;SDS011;5592;49.234;7.268;2024-01-07T00:30:31;3.53;;;2.60;;
11078;SDS011;5592;49.234;7.268;2024-01-07T00:32:57;5.10;;;2.80;;
11078;SDS011;5592;49.234;7.268;2024-01-07T00:35:22;3.80;;;2.30;;
11078;SDS011;5592;49.234;7.268;2024-01-07T00:37:48;3.20;;;2.70;;
11078;SDS011;5592;49.234;7.268;2024-01-07T00:40:13;3.77;;;3.10;;
11078;SDS011;5592;49.234;7.268;2024-01-07T00:42:39;3.73;;;2.77;;
11078;SDS011;5592;49.234;7.268;2024-01-07T00:45:05;4.20;;;3.07;;
11078;SDS011;5592;49.234;7.268;2024-01-07T00:47:31;3.07;;;2.70;;
11078;SDS011;5592;49.234;7.268;2024-01-07T00:49:56;5.10;;;3.00;;
11078;SDS011;5592;49.234;7.268;2024-01-07T00:52:22;3.97;;;3.20;;
11078;SDS011;5592;49.234;7.268;2024-01-07T00:54:48;3.90;;;2.90;;
11078;SDS011;5592;49.234;7.268;2024-01-07T00:57:13;5.23;;;2.60;;
11078;SDS011;5592;49.234;7.268;2024-01-07T00:59:39;3.87;;;3.03;;
11078;SDS011;5592;49.234;7.268;2024-01-07T01:02:04;4.33;;;3.30;;
11078;SDS011;5592;49.234;7.268;2024-01-07T01:04:30;3.20;;;2.60;;
11078;SDS011;5592;49.234;7.268;2024-01-07T01:06:56;3.23;;;2.87;;
11078;SDS011;5592;49.234;7.268;2024-01-07T01:09:21;4.20;;;3.27;;
11078;SDS011;5592;49.234;7.268;2024-01-07T01:11:47;3.67;;;3.07;;
11078;SDS011;5592;49.234;7.268;2024-01-07T01:14:12;3.73;;;2.97;;
11078;SDS011;5592;49.234;7.268;2024-01-07T01:16:38;5.17;;;3.20;;
11078;SDS011;5592;49.234;7.268;2024-01-07T01:19:03;5.07;;;3.33;;
11078;SDS011;5592;49.234;7.268;2024-01-07T01:21:29;4.53;;;3.67;;
11078;SDS011;5592;49.234;7.268;2024-01-07T01:23:55;3.63;;;3.30;;
11078;SDS011;5592;49.234;7.268;2024-01-07T01:26:20;5.60;;;3.67;;
11078;SDS011;5592;49.234;7.268;2024-01-07T01:28:46;3.70;;;3.30;;
11078;SDS011;5592;49.234;7.268;2024-01-07T01:31:12;4.30;;;3.50;;
11078;SDS011;5592;49.234;7.268;2024-01-07T01:33:39;5.37;;;3.40;;
11078;SDS011;5592;49.234;7.268;2024-01-07T01:36:05;3.33;;;3.03;;
11078;SDS011;5592;49.234;7.268;2024-01-07T01:38:33;5.10;;;2.70;;
11078;SDS011;5592;49.234;7.268;2024-01-07T01:40:58;5.13;;;3.40;;
11078;SDS011;5592;49.234;7.268;2024-01-07T01:43:25;4.27;;;3.47;;
11078;SDS011;5592;49.234;7.268;2024-01-07T01:45:52;5.03;;;3.23;;
11078;SDS011;5592;49.234;7.268;2024-01-07T01:48:18;6.30;;;3.43;;
11078;SDS011;5592;49.234;7.268;2024-01-07T01:50:45;3.87;;;3.53;;
11078;SDS011;5592;49.234;7.268;2024-01-07T01:53:12;5.57;;;4.07;;
11078;SDS011;5592;49.234;7.268;2024-01-07T01:55:38;3.63;;;3.23;;
11078;SDS011;5592;49.234;7.268;2024-01-07T01:58:03;5.13;;;4.00;;
11078;SDS011;5592;49.234;7.268;2024-01-07T02:00:29;7.00;;;3.50;;
11078;SDS011;5592;49.234;7.268;2024-01-07T02:02:55;3.83;;;2.90;;
11078;SDS011;5592;49.234;7.268;2024-01-07T02:05:21;6.77;;;3.83;;
11078;SDS011;5592;49.234;7.268;2024-01-07T02:07:47;4.50;;;3.27;;
11078;SDS011;5592;49.234;7.268;2024-01-07T02:10:13;4.33;;;3.83;;
11078;SDS011;5592;49.234;7.268;2024-01-07T02:12:38;4.67;;;3.63;;
11078;SDS011;5592;49.234;7.268;2024-01-07T02:15:04;4.83;;;3.80;;
11078;SDS011;5592;49.234;7.268;2024-01-07T02:17:33;5.30;;;3.73;;
11078;SDS011;5592;49.234;7.268;2024-01-07T02:19:58;4.47;;;3.80;;
11078;SDS011;5592;49.234;7.268;2024-01-07T02:22:24;5.20;;;3.70;;
11078;SDS011;5592;49.234;7.268;2024-01-07T02:24:49;4.67;;;3.77;;
11078;SDS011;5592;49.234;7.268;2024-01-07T02:27:15;6.00;;;4.43;;
11078;SDS011;5592;49.234;7.268;2024-01-07T02:29:40;5.77;;;4.57;;
11078;SDS011;5592;49.234;7.268;2024-01-07T02:32:06;6.00;;;3.70;;
11078;SDS011;5592;49.234;7.268;2024-01-07T02:34:31;6.30;;;4.50;;
11078;SDS011;5592;49.234;7.268;2024-01-07T02:36:57;5.43;;;4.40;;
11078;SDS011;5592;49.234;7.268;2024-01-07T02:39:22;5.37;;;4.20;;
11078;SDS011;5592;49.234;7.268;2024-01-07T02:41:48;5.67;;;4.03;;
11078;SDS011;5592;49.234;7.268;2024-01-07T02:44:14;6.00;;;4.17;;
11078;SDS011;5592;49.234;7.268;2024-01-07T02:46:40;5.50;;;4.03;;
11078;SDS011;5592;49.234;7.268;2024-01-07T02:49:05;5.10;;;4.23;;
11078;SDS011;5592;49.234;7.268;2024-01-07T02:51:31;5.60;;;4.17;;
11078;SDS011;5592;49.234;7.268;2024-01-07T02:53:56;6.23;;;4.30;;
11078;SDS011;5592;49.234;7.268;2024-01-07T02:56:22;10.33;;;4.63;;
11078;SDS011;5592;49.234;7.268;2024-01-07T02:58:47;6.13;;;4.27;;
11078;SDS011;5592;49.234;7.268;2024-01-07T03:01:13;6.17;;;4.70;;
11078;SDS011;5592;49.234;7.268;2024-01-07T03:03:38;6.67;;;4.90;;
11078;SDS011;5592;49.234;7.268;2024-01-07T03:06:04;7.60;;;5.07;;
11078;SDS011;5592;49.234;7.268;2024-01-07T03:08:29;6.93;;;5.00;;
11078;SDS011;5592;49.234;7.268;2024-01-07T03:10:55;6.23;;;4.50;;
11078;SDS011;5592;49.234;7.268;2024-01-07T03:13:21;6.60;;;5.07;;
11078;SDS011;5592;49.234;7.268;2024-01-07T03:15:46;6.10;;;4.93;;
11078;SDS011;5592;49.234;7.268;2024-01-07T03:18:12;7.47;;;5.60;;
11078;SDS011;5592;49.234;7.268;2024-01-07T03:20:37;7.67;;;4.57;;
11078;SDS011;5592;49.234;7.268;2024-01-07T03:23:03;6.83;;;5.47;;
11078;SDS011;5592;49.234;7.268;2024-01-07T03:25:28;9.30;;;5.73;;
11078;SDS011;5592;49.234;7.268;2024-01-07T03:27:54;8.10;;;5.70;;
11078;SDS011;5592;49.234;7.268;2024-01-07T03:30:19;8.77;;;6.20;;
11078;SDS011;5592;49.234;7.268;2024-01-07T03:32:45;12.70;;;5.70;;
11078;SDS011;5592;49.234;7.268;2024-01-07T03:35:10;7.77;;;5.80;;
11078;SDS011;5592;49.234;7.268;2024-01-07T03:37:36;6.00;;;4.80;;
11078;SDS011;5592;49.234;7.268;2024-01-07T03:40:07;8.07;;;5.97;;
11078;SDS011;5592;49.234;7.268;2024-01-07T03:42:35;8.73;;;6.00;;
11078;SDS011;5592;49.234;7.268;2024-01-07T03:45:01;9.50;;;6.37;;
11078;SDS011;5592;49.234;7.268;2024-01-07T03:47:26;8.70;;;6.30;;
11078;SDS011;5592;49.234;7.268;2024-01-07T03:49:52;9.10;;;6.47;;
11078;SDS011;5592;49.234;7.268;2024-01-07T03:52:17;11.03;;;5.93;;
11078;SDS011;5592;49.234;7.268;2024-01-07T03:54:43;9.30;;;6.30;;
11078;SDS011;5592;49.234;7.268;2024-01-07T03:57:08;12.60;;;6.87;;
11078;SDS011;5592;49.234;7.268;2024-01-07T03:59:34;9.60;;;6.90;;
11078;SDS011;5592;49.234;7.268;2024-01-07T04:01:59;9.87;;;6.70;;
11078;SDS011;5592;49.234;7.268;2024-01-07T04:04:25;13.60;;;7.67;;
11078;SDS011;5592;49.234;7.268;2024-01-07T04:06:50;10.70;;;7.00;;
11078;SDS011;5592;49.234;7.268;2024-01-07T04:09:16;10.77;;;6.67;;
11078;SDS011;5592;49.234;7.268;2024-01-07T04:11:42;11.17;;;7.27;;
11078;SDS011;5592;49.234;7.268;2024-01-07T04:14:08;10.93;;;6.33;;
11078;SDS011;5592;49.234;7.268;2024-01-07T04:16:34;9.13;;;6.80;;
11078;SDS011;5592;49.234;7.268;2024-01-07T04:19:00;9.47;;;6.80;;
11078;SDS011;5592;49.234;7.268;2024-01-07T04:21:26;10.80;;;7.17;;
11078;SDS011;5592;49.234;7.268;2024-01-07T04:23:51;9.27;;;6.23;;
11078;SDS011;5592;49.234;7.268;2024-01-07T04:26:17;10.03;;;7.03;;
11078;SDS011;5592;49.234;7.268;2024-01-07T04:28:42;9.30;;;6.00;;
11078;SDS011;5592;49.234;7.268;2024-01-07T04:31:09;11.40;;;7.67;;
11078;SDS011;5592;49.234;7.268;2024-01-07T04:33:34;9.60;;;6.30;;
11078;SDS011;5592;49.234;7.268;2024-01-07T04:36:00;10.57;;;6.90;;
11078;SDS011;5592;49.234;7.268;2024-01-07T04:38:26;9.50;;;6.37;;
11078;SDS011;5592;49.234;7.268;2024-01-07T04:40:52;14.00;;;6.70;;
11078;SDS011;5592;49.234;7.268;2024-01-07T04:43:18;11.87;;;6.70;;
11078;SDS011;5592;49.234;7.268;2024-01-07T04:45:47;9.00;;;6.00;;
11078;SDS011;5592;49.234;7.268;2024-01-07T04:48:16;8.70;;;6.20;;
11078;SDS011;5592;49.234;7.268;2024-01-07T04:50:41;10.37;;;6.27;;
11078;SDS011;5592;49.234;7.268;2024-01-07T04:53:07;12.00;;;6.97;;
11078;SDS011;5592;49.234;7.268;2024-01-07T04:55:33;12.73;;;7.00;;
11078;SDS011;5592;49.234;7.268;2024-01-07T04:57:59;11.67;;;6.50;;
11078;SDS011;5592;49.234;7.268;2024-01-07T05:00:24;9.57;;;6.50;;
11078;SDS011;5592;49.234;7.268;2024-01-07T05:02:50;12.10;;;7.07;;
11078;SDS011;5592;49.234;7.268;2024-01-07T05:05:15;10.93;;;6.60;;
11078;SDS011;5592;49.234;7.268;2024-01-07T05:07:41;10.30;;;6.80;;
11078;SDS011;5592;49.234;7.268;2024-01-07T05:10:07;10.97;;;6.90;;
11078;SDS011;5592;49.234;7.268;2024-01-07T05:12:32;14.27;;;7.30;;
11078;SDS011;5592;49.234;7.268;2024-01-07T05:14:58;9.87;;;6.63;;
11078;SDS011;5592;49.234;7.268;2024-01-07T05:17:23;12.80;;;7.60;;
11078;SDS011;5592;49.234;7.268;2024-01-07T05:19:49;11.67;;;6.33;;
11078;SDS011;5592;49.234;7.268;2024-01-07T05:22:15;10.00;;;7.10;;
11078;SDS011;5592;49.234;7.268;2024-01-07T05:24:40;11.27;;;7.40;;
11078;SDS011;5592;49.234;7.268;2024-01-07T05:27:06;12.00;;;6.77;;
11078;SDS011;5592;49.234;7.268;2024-01-07T05:29:31;11.23;;;6.13;;
11078;SDS011;5592;49.234;7.268;2024-01-07T05:32:00;11.63;;;6.90;;
11078;SDS011;5592;49.234;7.268;2024-01-07T05:34:29;9.83;;;5.33;;
11078;SDS011;5592;49.234;7.268;2024-01-07T05:36:55;10.67;;;6.27;;
11078;SDS011;5592;49.234;7.268;2024-01-07T05:39:20;10.60;;;6.67;;
11078;SDS011;5592;49.234;7.268;2024-01-07T05:41:48;9.70;;;6.60;;
11078;SDS011;5592;49.234;7.268;2024-01-07T05:44:13;9.97;;;5.97;;
11078;SDS011;5592;49.234;7.268;2024-01-07T05:46:39;10.50;;;5.77;;
11078;SDS011;5592;49.234;7.268;2024-01-07T05:49:05;11.50;;;6.93;;
11078;SDS011;5592;49.234;7.268;2024-01-07T05:51:30;9.57;;;5.77;;
11078;SDS011;5592;49.234;7.268;2024-01-07T05:53:56;12.03;;;7.20;;
11078;SDS011;5592;49.234;7.268;2024-01-07T05:56:22;12.10;;;6.83;;
11078;SDS011;5592;49.234;7.268;2024-01-07T05:58:48;9.80;;;6.33;;
11078;SDS011;5592;49.234;7.268;2024-01-07T06:01:18;9.20;;;5.83;;
11078;SDS011;5592;49.234;7.268;2024-01-07T06:03:44;7.80;;;5.30;;
11078;SDS011;5592;49.234;7.268;2024-01-07T06:06:12;11.83;;;6.30;;
11078;SDS011;5592;49.234;7.268;2024-01-07T06:08:38;9.63;;;5.67;;
11078;SDS011;5592;49.234;7.268;2024-01-07T06:11:03;11.00;;;5.73;;
11078;SDS011;5592;49.234;7.268;2024-01-07T06:13:29;11.10;;;6.67;;
11078;SDS011;5592;49.234;7.268;2024-01-07T06:15:54;8.37;;;5.60;;
11078;SDS011;5592;49.234;7.268;2024-01-07T06:18:20;10.10;;;5.60;;
11078;SDS011;5592;49.234;7.268;2024-01-07T06:20:45;8.30;;;5.70;;
11078;SDS011;5592;49.234;7.268;2024-01-07T06:23:11;9.33;;;5.73;;
11078;SDS011;5592;49.234;7.268;2024-01-07T06:25:36;9.40;;;5.70;;
11078;SDS011;5592;49.234;7.268;2024-01-07T06:28:02;9.13;;;5.53;;
11078;SDS011;5592;49.234;7.268;2024-01-07T06:30:28;13.50;;;5.80;;
11078;SDS011;5592;49.234;7.268;2024-01-07T06:32:53;8.97;;;5.50;;
11078;SDS011;5592;49.234;7.268;2024-01-07T06:35:20;8.77;;;5.53;;
11078;SDS011;5592;49.234;7.268;2024-01-07T06:37:45;10.30;;;5.80;;
11078;SDS011;5592;49.234;7.268;2024-01-07T06:40:11;7.07;;;4.77;;
11078;SDS011;5592;49.234;7.268;2024-01-07T06:42:36;10.13;;;6.53;;
11078;SDS011;5592;49.234;7.268;2024-01-07T06:45:02;8.20;;;5.60;;
11078;SDS011;5592;49.234;7.268;2024-01-07T06:47:28;9.70;;;6.07;;
11078;SDS011;5592;49.234;7.268;2024-01-07T06:49:54;7.90;;;5.30;;
11078;SDS011;5592;49.234;7.268;2024-01-07T06:52:20;10.20;;;5.33;;
11078;SDS011;5592;49.234;7.268;2024-01-07T06:54:46;8.80;;;5.50;;
11078;SDS011;5592;49.234;7.268;2024-01-07T06:57:11;8.33;;;5.60;;
11078;SDS011;5592;49.234;7.268;2024-01-07T06:59:37;7.00;;;5.13;;
11078;SDS011;5592;49.234;7.268;2024-01-07T07:02:03;9.97;;;5.57;;
11078;SDS011;5592;49.234;7.268;2024-01-07T07:04:28;7.30;;;4.80;;
11078;SDS011;5592;49.234;7.268;2024-01-07T07:06:54;7.67;;;4.83;;
11078;SDS011;5592;49.234;7.268;2024-01-07T07:09:19;9.67;;;5.57;;
11078;SDS011;5592;49.234;7.268;2024-01-07T07:11:45;8.83;;;6.00;;
11078;SDS011;5592;49.234;7.268;2024-01-07T07:14:10;7.87;;;5.50;;
11078;SDS011;5592;49.234;7.268;2024-01-07T07:16:36;9.20;;;4.90;;
11078;SDS011;5592;49.234;7.268;2024-01-07T07:19:01;8.03;;;4.83;;
11078;SDS011;5592;49.234;7.268;2024-01-07T07:21:27;7.83;;;5.40;;
11078;SDS011;5592;49.234;7.268;2024-01-07T07:23:53;7.37;;;4.70;;
11078;SDS011;5592;49.234;7.268;2024-01-07T07:26:18;8.53;;;4.47;;
11078;SDS011;5592;49.234;7.268;2024-01-07T07:28:44;9.17;;;5.00;;
11078;SDS011;5592;49.234;7.268;2024-01-07T07:31:10;6.77;;;5.10;;
11078;SDS011;5592;49.234;7.268;2024-01-07T07:33:38;7.40;;;4.83;;
11078;SDS011;5592;49.234;7.268;2024-01-07T07:36:04;5.63;;;4.10;;
11078;SDS011;5592;49.234;7.268;2024-01-07T07:38:30;7.47;;;5.03;;
11078;SDS011;5592;49.234;7.268;2024-01-07T07:40:56;9.03;;;5.50;;
11078;SDS011;5592;49.234;7.268;2024-01-07T07:43:22;7.67;;;4.27;;
11078;SDS011;5592;49.234;7.268;2024-01-07T07:45:47;7.60;;;4.60;;
11078;SDS011;5592;49.234;7.268;2024-01-07T07:48:14;6.03;;;4.67;;
11078;SDS011;5592;49.234;7.268;2024-01-07T07:50:39;8.00;;;4.30;;
11078;SDS011;5592;49.234;7.268;2024-01-07T07:53:05;9.87;;;5.00;;
11078;SDS011;5592;49.234;7.268;2024-01-07T07:55:31;7.57;;;4.47;;
11078;SDS011;5592;49.234;7.268;2024-01-07T07:57:57;6.50;;;5.00;;
11078;SDS011;5592;49.234;7.268;2024-01-07T08:00:23;8.20;;;4.17;;
11078;SDS011;5592;49.234;7.268;2024-01-07T08:02:49;10.13;;;5.00;;
11078;SDS011;5592;49.234;7.268;2024-01-07T08:05:14;7.77;;;5.03;;
11078;SDS011;5592;49.234;7.268;2024-01-07T08:07:40;8.00;;;4.50;;
11078;SDS011;5592;49.234;7.268;2024-01-07T08:10:06;8.93;;;4.77;;
11078;SDS011;5592;49.234;7.268;2024-01-07T08:12:33;8.80;;;4.53;;
11078;SDS011;5592;49.234;7.268;2024-01-07T08:14:58;7.80;;;4.60;;
11078;SDS011;5592;49.234;7.268;2024-01-07T08:17:24;8.57;;;4.63;;
11078;SDS011;5592;49.234;7.268;2024-01-07T08:19:49;8.50;;;5.03;;
11078;SDS011;5592;49.234;7.268;2024-01-07T08:22:15;7.17;;;4.50;;
11078;SDS011;5592;49.234;7.268;2024-01-07T08:24:41;7.07;;;4.77;;
11078;SDS011;5592;49.234;7.268;2024-01-07T08:27:06;8.07;;;5.13;;
11078;SDS011;5592;49.234;7.268;2024-01-07T08:29:33;7.80;;;4.80;;
11078;SDS011;5592;49.234;7.268;2024-01-07T08:31:59;7.23;;;4.77;;
11078;SDS011;5592;49.234;7.268;2024-01-07T08:34:24;10.10;;;5.30;;
11078;SDS011;5592;49.234;7.268;2024-01-07T08:36:50;7.90;;;5.27;;
11078;SDS011;5592;49.234;7.268;2024-01-07T08:39:15;6.80;;;4.80;;
11078;SDS011;5592;49.234;7.268;2024-01-07T08:41:41;9.03;;;5.30;;
11078;SDS011;5592;49.234;7.268;2024-01-07T08:44:07;6.40;;;4.80;;
11078;SDS011;5592;49.234;7.268;2024-01-07T08:46:35;6.63;;;4.87;;
11078;SDS011;5592;49.234;7.268;2024-01-07T08:49:01;6.10;;;4.90;;
11078;SDS011;5592;49.234;7.268;2024-01-07T08:51:27;8.33;;;5.00;;
11078;SDS011;5592;49.234;7.268;2024-01-07T08:53:54;9.00;;;5.63;;
11078;SDS011;5592;49.234;7.268;2024-01-07T08:56:20;6.00;;;4.00;;
11078;SDS011;5592;49.234;7.268;2024-01-07T08:58:45;6.40;;;5.13;;
11078;SDS011;5592;49.234;7.268;2024-01-07T09:01:11;7.90;;;5.47;;
11078;SDS011;5592;49.234;7.268;2024-01-07T09:03:39;6.73;;;4.40;;
11078;SDS011;5592;49.234;7.268;2024-01-07T09:06:05;9.43;;;5.00;;
11078;SDS011;5592;49.234;7.268;2024-01-07T09:08:30;6.90;;;4.90;;
11078;SDS011;5592;49.234;7.268;2024-01-07T09:10:56;6.53;;;4.23;;
11078;SDS011;5592;49.234;7.268;2024-01-07T09:13:22;5.57;;;4.50;;
11078;SDS011;5592;49.234;7.268;2024-01-07T09:15:47;6.57;;;4.47;;
11078;SDS011;5592;49.234;7.268;2024-01-07T09:18:13;7.30;;;4.87;;
11078;SDS011;5592;49.234;7.268;2024-01-07T09:20:39;8.77;;;4.70;;
11078;SDS011;5592;49.234;7.268;2024-01-07T09:23:04;6.93;;;4.67;;
11078;SDS011;5592;49.234;7.268;2024-01-07T09:25:30;6.87;;;4.07;;
11078;SDS011;5592;49.234;7.268;2024-01-07T09:27:55;6.30;;;4.50;;
11078;SDS011;5592;49.234;7.268;2024-01-07T09:30:21;6.70;;;4.47;;
11078;SDS011;5592;49.234;7.268;2024-01-07T09:32:47;7.83;;;4.20;;
11078;SDS011;5592;49.234;7.268;2024-01-07T09:35:12;5.53;;;4.00;;
11078;SDS011;5592;49.234;7.268;2024-01-07T09:37:38;6.17;;;4.37;;
11078;SDS011;5592;49.234;7.268;2024-01-07T09:40:03;6.13;;;4.13;;
11078;SDS011;5592;49.234;7.268;2024-01-07T09:42:30;6.73;;;4.17;;
11078;SDS011;5592;49.234;7.268;2024-01-07T09:45:00;7.57;;;4.50;;
11078;SDS011;5592;49.234;7.268;2024-01-07T09:47:30;7.70;;;4.93;;
11078;SDS011;5592;49.234;7.268;2024-01-07T09:49:56;6.47;;;4.13;;
11078;SDS011;5592;49.234;7.268;2024-01-07T09:52:21;4.73;;;3.93;;
11078;SDS011;5592;49.234;7.268;2024-01-07T09:54:49;5.13;;;4.00;;
11078;SDS011;5592;49.234;7.268;2024-01-07T09:57:18;4.60;;;3.60;;
11078;SDS011;5592;49.234;7.268;2024-01-07T09:59:43;7.90;;;4.87;;
11078;SDS011;5592;49.234;7.268;2024-01-07T10:02:11;5.23;;;3.60;;
11078;SDS011;5592;49.234;7.268;2024-01-07T10:04:37;4.97;;;4.00;;
11078;SDS011;5592;49.234;7.268;2024-01-07T10:07:02;5.20;;;3.87;;
11078;SDS011;5592;49.234;7.268;2024-01-07T10:09:32;5.33;;;3.73;;
11078;SDS011;5592;49.234;7.268;2024-01-07T10:11:58;5.63;;;3.97;;
11078;SDS011;5592;49.234;7.268;2024-01-07T10:14:24;5.00;;;3.60;;
11078;SDS011;5592;49.234;7.268;2024-01-07T10:16:51;8.50;;;4.30;;
11078;SDS011;5592;49.234;7.268;2024-01-07T10:19:23;7.10;;;4.60;;
11078;SDS011;5592;49.234;7.268;2024-01-07T10:21:58;4.20;;;3.10;;
11078;SDS011;5592;49.234;7.268;2024-01-07T10:24:37;6.40;;;4.20;;
11078;SDS011;5592;49.234;7.268;2024-01-07T10:27:04;5.10;;;3.57;;
11078;SDS011;5592;49.234;7.268;2024-01-07T10:29:31;6.20;;;4.30;;
11078;SDS011;5592;49.234;7.268;2024-01-07T10:32:00;5.90;;;3.90;;
11078;SDS011;5592;49.234;7.268;2024-01-07T10:34:36;7.13;;;4.83;;
11078;SDS011;5592;49.234;7.268;2024-01-07T10:37:03;5.10;;;3.30;;
11078;SDS011;5592;49.234;7.268;2024-01-07T10:39:33;5.57;;;4.00;;
11078;SDS011;5592;49.234;7.268;2024-01-07T10:41:59;5.37;;;4.43;;
11078;SDS011;5592;49.234;7.268;2024-01-07T10:44:25;7.60;;;3.97;;
11078;SDS011;5592;49.234;7.268;2024-01-07T10:46:57;6.47;;;4.67;;
11078;SDS011;5592;49.234;7.268;2024-01-07T10:49:27;6.67;;;4.10;;
11078;SDS011;5592;49.234;7.268;2024-01-07T10:52:03;5.30;;;4.40;;
11078;SDS011;5592;49.234;7.268;2024-01-07T10:54:33;5.93;;;4.63;;
11078;SDS011;5592;49.234;7.268;2024-01-07T10:57:04;4.87;;;4.37;;
11078;SDS011;5592;49.234;7.268;2024-01-07T10:59:30;6.50;;;4.30;;
11078;SDS011;5592;49.234;7.268;2024-01-07T11:01:58;8.80;;;5.20;;
11078;SDS011;5592;49.234;7.268;2024-01-07T11:04:32;5.77;;;4.30;;
11078;SDS011;5592;49.234;7.268;2024-01-07T11:07:17;7.27;;;4.83;;
11078;SDS011;5592;49.234;7.268;2024-01-07T11:10:22;7.57;;;5.57;;
11078;SDS011;5592;49.234;7.268;2024-01-07T11:12:56;9.70;;;5.70;;
11078;SDS011;5592;49.234;7.268;2024-01-07T11:18:16;7.93;;;4.60;;
11078;SDS011;5592;49.234;7.268;2024-01-07T11:20:43;7.00;;;5.10;;
11078;SDS011;5592;49.234;7.268;2024-01-07T11:23:25;7.60;;;5.00;;
11078;SDS011;5592;49.234;7.268;2024-01-07T11:26:02;8.67;;;5.30;;
11078;SDS011;5592;49.234;7.268;2024-01-07T11:31:17;5.73;;;4.53;;
11078;SDS011;5592;49.234;7.268;2024-01-07T11:34:06;7.17;;;5.10;;
11078;SDS011;5592;49.234;7.268;2024-01-07T11:36:31;7.57;;;5.57;;
11078;SDS011;5592;49.234;7.268;2024-01-07T11:39:03;9.93;;;4.97;;
11078;SDS011;5592;49.234;7.268;2024-01-07T11:41:33;6.53;;;4.90;;
11078;SDS011;5592;49.234;7.268;2024-01-07T11:44:00;7.73;;;5.23;;
11078;SDS011;5592;49.234;7.268;2024-01-07T11:46:27;6.43;;;4.97;;
11078;SDS011;5592;49.234;7.268;2024-01-07T11:48:54;7.13;;;5.20;;
11078;SDS011;5592;49.234;7.268;2024-01-07T11:51:25;6.10;;;4.77;;
11078;SDS011;5592;49.234;7.268;2024-01-07T11:53:51;5.60;;;4.90;;
11078;SDS011;5592;49.234;7.268;2024-01-07T11:56:17;6.97;;;5.57;;
11078;SDS011;5592;49.234;7.268;2024-01-07T11:58:43;7.57;;;5.90;;
11078;SDS011;5592;49.234;7.268;2024-01-07T12:01:09;7.60;;;5.00;;
11078;SDS011;5592;49.234;7.268;2024-01-07T12:03:35;6.27;;;5.10;;
11078;SDS011;5592;49.234;7.268;2024-01-07T12:06:00;10.30;;;5.80;;
11078;SDS011;5592;49.234;7.268;2024-01-07T12:08:26;8.00;;;5.17;;
11078;SDS011;5592;49.234;7.268;2024-01-07T12:10:52;8.53;;;5.30;;
11078;SDS011;5592;49.234;7.268;2024-01-07T12:13:17;7.30;;;5.57;;
11078;SDS011;5592;49.234;7.268;2024-01-07T12:15:44;5.63;;;4.87;;
11078;SDS011;5592;49.234;7.268;2024-01-07T12:18:10;6.43;;;4.27;;
11078;SDS011;5592;49.234;7.268;2024-01-07T12:20:36;6.87;;;4.53;;
11078;SDS011;5592;49.234;7.268;2024-01-07T12:23:08;6.63;;;4.70;;
11078;SDS011;5592;49.234;7.268;2024-01-07T12:25:34;9.67;;;5.27;;
11078;SDS011;5592;49.234;7.268;2024-01-07T12:28:00;9.03;;;5.80;;
11078;SDS011;5592;49.234;7.268;2024-01-07T12:30:26;6.50;;;5.30;;
11078;SDS011;5592;49.234;7.268;2024-01-07T12:32:52;7.77;;;4.40;;
11078;SDS011;5592;49.234;7.268;2024-01-07T12:35:18;10.50;;;5.20;;
11078;SDS011;5592;49.234;7.268;2024-01-07T12:37:44;6.63;;;4.73;;
11078;SDS011;5592;49.234;7.268;2024-01-07T12:40:10;9.60;;;5.07;;
11078;SDS011;5592;49.234;7.268;2024-01-07T12:42:39;6.63;;;4.50;;
11078;SDS011;5592;49.234;7.268;2024-01-07T12:45:10;6.27;;;4.90;;
11078;SDS011;5592;49.234;7.268;2024-01-07T12:47:39;7.83;;;5.67;;
11078;SDS011;5592;49.234;7.268;2024-01-07T12:50:06;8.63;;;5.83;;
11078;SDS011;5592;49.234;7.268;2024-01-07T12:52:33;7.60;;;5.27;;
11078;SDS011;5592;49.234;7.268;2024-01-07T12:54:59;8.20;;;5.17;;
11078;SDS011;5592;49.234;7.268;2024-01-07T12:57:25;7.00;;;4.80;;
11078;SDS011;5592;49.234;7.268;2024-01-07T12:59:50;7.70;;;5.80;;
11078;SDS011;5592;49.234;7.268;2024-01-07T13:02:16;6.77;;;4.87;;
11078;SDS011;5592;49.234;7.268;2024-01-07T13:04:41;8.90;;;5.50;;
11078;SDS011;5592;49.234;7.268;2024-01-07T13:07:07;9.73;;;5.90;;
11078;SDS011;5592;49.234;7.268;2024-01-07T13:09:33;7.70;;;5.20;;
11078;SDS011;5592;49.234;7.268;2024-01-07T13:11:58;10.73;;;6.10;;
11078;SDS011;5592;49.234;7.268;2024-01-07T13:14:24;9.60;;;5.73;;
11078;SDS011;5592;49.234;7.268;2024-01-07T13:16:50;11.00;;;5.80;;
11078;SDS011;5592;49.234;7.268;2024-01-07T13:19:16;9.10;;;5.87;;
11078;SDS011;5592;49.234;7.268;2024-01-07T13:21:41;10.40;;;6.47;;
11078;SDS011;5592;49.234;7.268;2024-01-07T13:24:07;5.70;;;4.40;;
11078;SDS011;5592;49.234;7.268;2024-01-07T13:26:32;9.37;;;5.20;;
11078;SDS011;5592;49.234;7.268;2024-01-07T13:28:58;6.40;;;4.53;;
11078;SDS011;5592;49.234;7.268;2024-01-07T13:31:24;10.60;;;4.67;;
11078;SDS011;5592;49.234;7.268;2024-01-07T13:33:49;7.73;;;4.80;;
11078;SDS011;5592;49.234;7.268;2024-01-07T13:36:15;7.50;;;4.80;;
11078;SDS011;5592;49.234;7.268;2024-01-07T13:38:41;5.53;;;4.07;;
11078;SDS011;5592;49.234;7.268;2024-01-07T13:41:09;5.00;;;3.77;;
11078;SDS011;5592;49.234;7.268;2024-01-07T13:43:35;5.30;;;4.17;;
11078;SDS011;5592;49.234;7.268;2024-01-07T13:46:03;4.23;;;3.27;;
11078;SDS011;5592;49.234;7.268;2024-01-07T13:48:31;6.80;;;3.90;;
11078;SDS011;5592;49.234;7.268;2024-01-07T13:50:56;4.37;;;3.67;;
11078;SDS011;5592;49.234;7.268;2024-01-07T13:53:23;5.33;;;4.00;;
11078;SDS011;5592;49.234;7.268;2024-01-07T13:55:48;5.10;;;4.07;;
11078;SDS011;5592;49.234;7.268;2024-01-07T13:58:14;6.10;;;4.03;;
11078;SDS011;5592;49.234;7.268;2024-01-07T14:00:40;6.53;;;4.57;;
11078;SDS011;5592;49.234;7.268;2024-01-07T14:03:06;6.20;;;4.03;;
11078;SDS011;5592;49.234;7.268;2024-01-07T14:05:32;6.83;;;4.57;;
11078;SDS011;5592;49.234;7.268;2024-01-07T14:07:57;5.60;;;4.67;;
11078;SDS011;5592;49.234;7.268;2024-01-07T14:10:23;8.90;;;5.13;;
11078;SDS011;5592;49.234;7.268;2024-01-07T14:12:48;7.40;;;5.73;;
11078;SDS011;5592;49.234;7.268;2024-01-07T14:15:14;9.03;;;5.73;;
11078;SDS011;5592;49.234;7.268;2024-01-07T14:17:39;12.37;;;6.37;;
11078;SDS011;5592;49.234;7.268;2024-01-07T14:20:08;8.47;;;6.10;;
11078;SDS011;5592;49.234;7.268;2024-01-07T14:22:34;8.73;;;6.10;;
11078;SDS011;5592;49.234;7.268;2024-01-07T14:25:00;11.63;;;6.80;;
11078;SDS011;5592;49.234;7.268;2024-01-07T14:27:26;7.43;;;6.30;;
11078;SDS011;5592;49.234;7.268;2024-01-07T14:29:52;11.50;;;6.30;;
11078;SDS011;5592;49.234;7.268;2024-01-07T14:32:17;8.80;;;6.30;;
11078;SDS011;5592;49.234;7.268;2024-01-07T14:34:43;8.70;;;5.70;;
11078;SDS011;5592;49.234;7.268;2024-01-07T14:37:09;9.57;;;6.30;;
11078;SDS011;5592;49.234;7.268;2024-01-07T14:39:35;8.13;;;5.30;;
11078;SDS011;5592;49.234;7.268;2024-01-07T14:42:01;12.10;;;6.43;;
11078;SDS011;5592;49.234;7.268;2024-01-07T14:44:27;8.30;;;5.30;;
11078;SDS011;5592;49.234;7.268;2024-01-07T14:46:53;10.00;;;6.17;;
11078;SDS011;5592;49.234;7.268;2024-01-07T14:49:19;10.77;;;5.90;;
11078;SDS011;5592;49.234;7.268;2024-01-07T14:51:44;7.57;;;5.33;;
11078;SDS011;5592;49.234;7.268;2024-01-07T14:54:10;7.30;;;4.23;;
11078;SDS011;5592;49.234;7.268;2024-01-07T14:56:35;7.87;;;5.40;;
11078;SDS011;5592;49.234;7.268;2024-01-07T14:59:01;7.77;;;4.80;;
11078;SDS011;5592;49.234;7.268;2024-01-07T15:01:27;6.70;;;4.77;;